Time;durP1;ratioP1;P1;durP2;ratioP2;P2;SDS_P1;SDS_P2;PMS_P1;PMS_P2;Temp;Humidity;BMP_temperature;BMP_pressure;BME280_temperature;BME280_humidity;BME280_pressure;Samples;Min_cycle;Max_cycle;Signal;HPM_P1;HPM_P2
2021/07/05 00:00:14;;;;;;;;;3.25;2.00;;;;;19.73;100.00;100792.53;5058852;28;45420;-75
2021/07/05 00:02:41;;;;;;;;;2.75;2.00;;;;;19.76;100.00;100792.34;5057894;28;45520;-75
2021/07/05 00:05:09;;;;;;;;;2.50;2.00;;;;;19.76;100.00;100801.16;5058098;28;45534;-75
2021/07/05 00:07:34;;;;;;;;;4.00;2.00;;;;;19.79;100.00;100789.53;5058111;28;45455;-75
2021/07/05 00:10:00;;;;;;;;;3.00;2.50;;;;;19.73;100.00;100774.84;5055488;28;45480;-76
2021/07/05 00:12:26;;;;;;;;;2.00;2.00;;;;;19.77;100.00;100778.19;5046990;28;45438;-76
2021/07/05 00:14:52;;;;;;;;;2.00;2.00;;;;;19.70;100.00;100748.50;5043770;28;45677;-76
2021/07/05 00:17:17;;;;;;;;;3.75;2.75;;;;;19.74;100.00;100757.16;5051528;28;45317;-76
2021/07/05 00:19:42;;;;;;;;;3.00;2.25;;;;;19.78;100.00;100767.50;5051010;28;45208;-75
2021/07/05 00:22:08;;;;;;;;;3.50;2.50;;;;;19.75;100.00;100770.31;5057806;28;45446;-75
2021/07/05 00:24:33;;;;;;;;;3.00;3.00;;;;;19.74;100.00;100778.34;5050569;28;45347;-75
2021/07/05 00:26:59;;;;;;;;;2.50;2.50;;;;;19.79;100.00;100792.19;5050634;28;45400;-75
2021/07/05 00:29:24;;;;;;;;;4.00;3.25;;;;;19.77;100.00;100780.81;5058177;28;45736;-75
2021/07/05 00:31:50;;;;;;;;;2.75;2.25;;;;;19.74;100.00;100784.50;5029113;28;45953;-75
2021/07/05 00:34:15;;;;;;;;;2.00;2.00;;;;;19.78;100.00;100794.00;5052697;28;45298;-76
2021/07/05 00:36:41;;;;;;;;;2.50;2.00;;;;;19.70;100.00;100777.66;5038976;28;45398;-76
2021/07/05 00:39:06;;;;;;;;;3.25;2.00;;;;;19.66;100.00;100777.84;5057894;28;45328;-76
2021/07/05 00:41:32;;;;;;;;;3.00;2.00;;;;;19.67;100.00;100767.19;5057691;28;46443;-76
2021/07/05 00:43:58;;;;;;;;;2.00;2.00;;;;;19.62;100.00;100763.06;5057601;28;45495;-75
2021/07/05 00:46:25;;;;;;;;;3.00;2.00;;;;;19.66;100.00;100773.41;5052391;28;45504;-75
2021/07/05 00:48:52;;;;;;;;;2.00;2.00;;;;;19.62;100.00;100776.31;5048573;28;45420;-76
2021/07/05 00:51:18;;;;;;;;;3.50;3.00;;;;;19.57;100.00;100772.09;5056996;28;47390;-76
2021/07/05 00:53:46;;;;;;;;;3.75;3.00;;;;;19.56;100.00;100778.34;5057654;28;45342;-76
2021/07/05 00:56:12;;;;;;;;;2.50;2.00;;;;;19.53;100.00;100775.84;5057135;28;45550;-76
2021/07/05 00:58:38;;;;;;;;;3.50;3.00;;;;;19.61;100.00;100787.84;5057794;28;45325;-76
2021/07/05 01:01:04;;;;;;;;;2.00;1.75;;;;;19.56;100.00;100773.03;5057186;28;46200;-76
2021/07/05 01:03:29;;;;;;;;;2.75;2.75;;;;;19.53;100.00;100756.41;5025008;28;45316;-76
2021/07/05 01:05:55;;;;;;;;;3.00;2.00;;;;;19.39;100.00;100729.78;5046422;28;45657;-76
2021/07/05 01:08:20;;;;;;;;;2.00;2.00;;;;;19.50;100.00;100759.22;5022700;28;45548;-76
2021/07/05 01:10:47;;;;;;;;;2.00;2.00;;;;;19.46;100.00;100747.94;5056384;28;46040;-75
2021/07/05 01:13:12;;;;;;;;;2.00;2.00;;;;;19.47;100.00;100747.00;5050624;28;45540;-76
2021/07/05 01:15:38;;;;;;;;;3.00;3.00;;;;;19.48;100.00;100738.13;5050962;28;45748;-76
2021/07/05 01:18:06;;;;;;;;;2.75;2.75;;;;;19.43;100.00;100728.69;5057270;28;45440;-75
2021/07/05 01:20:35;;;;;;;;;2.00;2.00;;;;;19.46;100.00;100721.47;5051312;28;46306;-76
2021/07/05 01:23:00;;;;;;;;;2.00;2.00;;;;;19.44;100.00;100710.06;5050213;28;45495;-75
2021/07/05 01:25:28;;;;;;;;;3.00;2.00;;;;;19.45;100.00;100719.72;5042823;28;45309;-75
2021/07/05 01:27:54;;;;;;;;;2.75;2.00;;;;;19.46;100.00;100723.22;5037051;28;45544;-76
2021/07/05 01:30:21;;;;;;;;;2.00;1.00;;;;;19.38;100.00;100728.91;5049309;28;46056;-75
2021/07/05 01:32:48;;;;;;;;;2.00;1.75;;;;;19.40;100.00;100744.72;5056338;28;45631;-75
2021/07/05 01:35:15;;;;;;;;;2.00;2.00;;;;;19.40;100.00;100729.69;5056881;28;45218;-76
2021/07/05 01:37:41;;;;;;;;;3.00;2.25;;;;;19.40;100.00;100737.63;5057343;28;45399;-76
2021/07/05 01:40:08;;;;;;;;;2.75;2.00;;;;;19.31;100.00;100726.66;5038374;28;47530;-76
2021/07/05 01:42:35;;;;;;;;;2.00;1.25;;;;;19.27;100.00;100737.41;5038367;28;45622;-76
2021/07/05 01:45:01;;;;;;;;;3.00;2.00;;;;;19.26;100.00;100737.50;5049863;28;45379;-75
2021/07/05 01:47:26;;;;;;;;;2.00;2.00;;;;;19.16;100.00;100739.72;5036117;28;45331;-76
2021/07/05 01:49:52;;;;;;;;;1.50;1.50;;;;;19.18;100.00;100748.44;5055444;28;45587;-76
2021/07/05 01:52:17;;;;;;;;;2.50;2.00;;;;;19.10;100.00;100739.19;5056710;28;45372;-76
2021/07/05 01:54:42;;;;;;;;;2.00;2.00;;;;;19.01;100.00;100740.50;5049828;28;45982;-75
2021/07/05 01:57:27;;;;;;;;;2.00;1.25;;;;;19.04;100.00;100750.09;5051465;28;45595;-76
2021/07/05 01:59:54;;;;;;;;;2.50;2.00;;;;;18.90;100.00;100725.16;5052868;28;46462;-75
2021/07/05 02:02:21;;;;;;;;;2.75;2.50;;;;;18.91;100.00;100728.66;5056199;28;45410;-76
2021/07/05 02:04:47;;;;;;;;;2.00;2.00;;;;;18.75;100.00;100719.72;5056124;28;45459;-75
2021/07/05 02:07:13;;;;;;;;;3.00;2.00;;;;;18.66;100.00;100719.25;5052947;28;45439;-75
2021/07/05 02:09:39;;;;;;;;;1.25;1.25;;;;;18.84;100.00;100748.41;5052014;28;45584;-75
2021/07/05 02:12:04;;;;;;;;;3.50;2.75;;;;;18.77;100.00;100749.59;5052115;28;45471;-76
2021/07/05 02:14:29;;;;;;;;;2.75;2.50;;;;;18.70;100.00;100740.25;5021536;28;45379;-76
2021/07/05 02:16:55;;;;;;;;;3.00;2.00;;;;;18.64;100.00;100731.69;5037745;28;45489;-76
2021/07/05 02:19:21;;;;;;;;;2.00;2.00;;;;;18.67;100.00;100738.63;5055787;28;46553;-76
2021/07/05 02:21:47;;;;;;;;;3.00;2.00;;;;;18.71;100.00;100753.41;5054251;28;45368;-76
2021/07/05 02:24:12;;;;;;;;;1.75;1.25;;;;;18.64;100.00;100723.75;5046076;28;45378;-76
2021/07/05 02:26:38;;;;;;;;;2.25;2.25;;;;;18.73;100.00;100734.81;5048371;28;45415;-76
2021/07/05 02:29:03;;;;;;;;;2.75;2.75;;;;;18.75;100.00;100732.97;5055823;28;45944;-76
2021/07/05 02:31:29;;;;;;;;;2.00;2.00;;;;;18.76;100.00;100727.59;5051474;28;45440;-76
2021/07/05 02:33:54;;;;;;;;;2.00;2.00;;;;;18.78;100.00;100719.56;5055839;28;45218;-75
2021/07/05 02:36:19;;;;;;;;;4.00;3.00;;;;;18.77;100.00;100707.28;5055968;28;45238;-77
2021/07/05 02:38:47;;;;;;;;;2.25;2.00;;;;;18.85;100.00;100713.06;5037404;28;46561;-75
2021/07/05 02:41:12;;;;;;;;;3.00;3.00;;;;;18.85;100.00;100705.16;5036146;28;45909;-75
2021/07/05 02:43:38;;;;;;;;;2.00;2.00;;;;;18.81;100.00;100693.84;5025352;28;45473;-75
2021/07/05 02:46:03;;;;;;;;;2.75;2.00;;;;;18.89;100.00;100704.91;5042900;28;45512;-75
2021/07/05 02:48:30;;;;;;;;;3.25;2.25;;;;;18.83;100.00;100704.38;5054369;28;46386;-75
2021/07/05 02:51:00;;;;;;;;;2.25;1.50;;;;;18.91;100.00;100707.47;5055912;28;45497;-76
2021/07/05 02:53:26;;;;;;;;;2.00;2.00;;;;;18.93;100.00;100705.63;5041628;28;45281;-76
2021/07/05 02:55:53;;;;;;;;;2.25;2.25;;;;;18.92;100.00;100699.47;5055458;28;45410;-77
2021/07/05 02:58:19;;;;;;;;;1.50;1.00;;;;;18.92;100.00;100693.31;5055306;28;46613;-76
2021/07/05 03:00:47;;;;;;;;;3.50;2.25;;;;;18.87;100.00;100690.91;5040817;28;45411;-76
2021/07/05 03:03:14;;;;;;;;;2.50;2.00;;;;;18.89;100.00;100686.38;5045116;28;45459;-76
2021/07/05 03:05:40;;;;;;;;;2.75;2.25;;;;;18.87;100.00;100677.69;5059524;28;45383;-76
2021/07/05 03:08:06;;;;;;;;;2.25;2.00;;;;;18.90;100.00;100677.53;5048811;28;46388;-75
2021/07/05 03:10:35;;;;;;;;;2.00;2.00;;;;;18.89;100.00;100672.31;5044717;28;45720;-76
2021/07/05 03:13:03;;;;;;;;;3.25;1.50;;;;;18.97;100.00;100673.63;5041333;28;45473;-76
2021/07/05 03:15:28;;;;;;;;;3.00;2.00;;;;;18.95;100.00;100664.06;5040538;28;45555;-75
2021/07/05 03:17:54;;;;;;;;;1.25;1.25;;;;;18.94;100.00;100668.50;5050298;28;46436;-75
2021/07/05 03:20:23;;;;;;;;;2.50;1.75;;;;;18.97;100.00;100672.78;5052680;28;45692;-76
2021/07/05 03:22:50;;;;;;;;;2.00;2.00;;;;;18.89;100.00;100661.72;5059146;28;45356;-76
2021/07/05 03:25:18;;;;;;;;;3.00;2.00;;;;;18.92;100.00;100657.13;5059078;28;45623;-75
2021/07/05 03:27:44;;;;;;;;;2.00;2.00;;;;;18.84;100.00;100653.16;5058873;28;46561;-76
2021/07/05 03:30:13;;;;;;;;;1.00;1.00;;;;;18.84;100.00;100661.97;5058742;28;45495;-77
2021/07/05 03:32:38;;;;;;;;;3.00;2.75;;;;;18.86;100.00;100662.75;5058757;28;45522;-76
2021/07/05 03:35:06;;;;;;;;;2.50;2.50;;;;;18.85;100.00;100660.16;5049223;28;45415;-77
2021/07/05 03:37:31;;;;;;;;;3.00;2.50;;;;;18.81;100.00;100651.53;5053984;28;46236;-76
2021/07/05 03:39:57;;;;;;;;;3.00;2.00;;;;;18.79;100.00;100657.84;5058224;28;45436;-76
2021/07/05 03:42:22;;;;;;;;;2.00;2.00;;;;;18.72;100.00;100645.81;5058794;28;45396;-76
2021/07/05 03:44:48;;;;;;;;;2.00;2.00;;;;;18.70;100.00;100645.91;5035491;28;45436;-76
2021/07/05 03:47:13;;;;;;;;;3.50;2.75;;;;;18.71;100.00;100650.25;5049465;28;46310;-76
2021/07/05 03:49:38;;;;;;;;;3.00;3.00;;;;;18.63;100.00;100637.44;5057940;28;45335;-76
2021/07/05 03:52:04;;;;;;;;;2.50;2.00;;;;;18.67;100.00;100641.63;5031726;28;45275;-76
2021/07/05 03:54:30;;;;;;;;;3.25;2.50;;;;;18.66;100.00;100639.91;5053357;28;45366;-76
2021/07/05 03:56:55;;;;;;;;;3.00;3.00;;;;;18.58;100.00;100626.19;5033165;28;47644;-76
2021/07/05 03:59:21;;;;;;;;;2.00;2.00;;;;;18.55;100.00;100615.75;5051335;28;45404;-76
2021/07/05 04:01:46;;;;;;;;;2.00;2.00;;;;;18.57;100.00;100613.91;5039447;28;46200;-75
2021/07/05 04:04:12;;;;;;;;;4.00;3.00;;;;;18.57;100.00;100615.69;5058796;28;45430;-76
2021/07/05 04:06:38;;;;;;;;;2.00;2.00;;;;;18.51;100.00;100598.31;5044101;28;45454;-76
2021/07/05 04:09:05;;;;;;;;;2.50;2.25;;;;;18.55;100.00;100604.31;5058257;28;45437;-77
2021/07/05 04:11:31;;;;;;;;;3.00;2.25;;;;;18.54;100.00;100595.50;5051129;28;45542;-77
2021/07/05 04:13:56;;;;;;;;;4.75;2.75;;;;;18.55;100.00;100583.16;5051345;28;45415;-76
2021/07/05 04:16:23;;;;;;;;;4.25;3.50;;;;;18.60;100.00;100589.94;5037962;28;45302;-76
2021/07/05 04:18:49;;;;;;;;;3.00;2.00;;;;;18.59;100.00;100579.44;5057222;28;45539;-76
2021/07/05 04:21:14;;;;;;;;;3.00;3.00;;;;;18.60;100.00;100589.94;5046970;28;45379;-76
2021/07/05 04:23:39;;;;;;;;;4.25;4.00;;;;;18.48;100.00;100564.09;5055166;28;45516;-76
2021/07/05 04:26:05;;;;;;;;;2.75;2.75;;;;;18.60;100.00;100579.38;5057408;28;45420;-76
2021/07/05 04:28:30;;;;;;;;;3.75;3.25;;;;;18.64;100.00;100588.03;5039129;28;45224;-76
2021/07/05 04:30:56;;;;;;;;;2.00;2.00;;;;;18.63;100.00;100584.53;5057932;28;45406;-76
2021/07/05 04:33:22;;;;;;;;;3.00;3.00;;;;;18.55;100.00;100568.13;5057384;28;45432;-75
2021/07/05 04:35:47;;;;;;;;;4.00;3.00;;;;;18.63;100.00;100586.31;5056875;28;45438;-75
2021/07/05 04:38:13;;;;;;;;;2.50;2.50;;;;;18.66;100.00;100581.72;5057511;28;45294;-76
2021/07/05 04:40:40;;;;;;;;;3.00;3.00;;;;;18.64;100.00;100574.81;5057618;28;45389;-76
2021/07/05 04:43:06;;;;;;;;;3.25;3.25;;;;;18.57;100.00;100550.44;5054162;28;45487;-76
2021/07/05 04:45:33;;;;;;;;;5.00;4.50;;;;;18.65;100.00;100550.94;5024486;28;47170;-76
2021/07/05 04:48:02;;;;;;;;;4.25;4.25;;;;;18.74;100.00;100551.38;5054666;28;45404;-76
2021/07/05 04:50:29;;;;;;;;;6.00;5.75;;;;;18.72;100.00;100532.09;5057805;28;45241;-76
2021/07/05 04:52:54;;;;;;;;;7.50;5.00;;;;;18.68;100.00;100520.81;5057828;28;45282;-76
2021/07/05 04:55:21;;;;;;;;;4.25;3.75;;;;;18.75;100.00;100518.72;5056544;28;47115;-76
2021/07/05 04:57:48;;;;;;;;;4.50;4.25;;;;;18.77;100.00;100520.34;5039258;28;45562;-77
2021/07/05 05:00:18;;;;;;;;;4.00;3.00;;;;;18.73;100.00;100513.50;5043716;28;45364;-76
2021/07/05 05:02:44;;;;;;;;;3.00;3.00;;;;;18.78;100.00;100531.78;5039641;28;45385;-76
2021/07/05 05:05:10;;;;;;;;;2.75;2.75;;;;;18.77;100.00;100522.13;5055402;28;45748;-76
2021/07/05 05:07:36;;;;;;;;;4.00;3.50;;;;;18.76;100.00;100520.41;5057233;28;45461;-76
2021/07/05 05:10:05;;;;;;;;;5.00;4.00;;;;;18.79;100.00;100515.00;5042475;28;45524;-76
2021/07/05 05:12:31;;;;;;;;;3.00;3.00;;;;;18.80;100.00;100519.34;5049087;28;45311;-77
2021/07/05 05:14:57;;;;;;;;;3.00;3.00;;;;;18.83;100.00;100520.03;5056794;28;45581;-77
2021/07/05 05:17:23;;;;;;;;;3.00;2.75;;;;;18.79;100.00;100515.00;5056743;28;45527;-75
2021/07/05 05:19:48;;;;;;;;;2.25;2.00;;;;;18.82;100.00;100515.69;5044957;28;45417;-76
2021/07/05 05:22:15;;;;;;;;;3.00;3.00;;;;;18.84;100.00;100521.75;5045122;28;45386;-76
2021/07/05 05:24:40;;;;;;;;;1.00;1.00;;;;;18.92;100.00;100529.28;5027189;28;48126;-75
2021/07/05 05:27:06;;;;;;;;;3.00;3.00;;;;;18.96;100.00;100529.03;5044147;28;45544;-75
2021/07/05 05:29:32;;;;;;;;;2.25;2.00;;;;;18.96;100.00;100510.50;5054115;28;45443;-76
2021/07/05 05:31:57;;;;;;;;;3.00;3.00;;;;;19.03;100.00;100511.06;5029132;28;45470;-76
2021/07/05 05:34:23;;;;;;;;;3.00;2.75;;;;;19.08;100.00;100518.75;5049197;28;46918;-76
2021/07/05 05:36:49;;;;;;;;;3.00;3.00;;;;;19.04;100.00;100502.19;5050097;28;45274;-76
2021/07/05 05:39:15;;;;;;;;;3.00;3.00;;;;;19.13;100.00;100520.22;5045842;28;45489;-76
2021/07/05 05:41:41;;;;;;;;;3.50;3.00;;;;;19.18;100.00;100518.16;5056542;28;45317;-76
2021/07/05 05:44:07;;;;;;;;;2.00;1.00;;;;;19.22;100.00;100514.41;5056447;28;45539;-76
2021/07/05 05:46:33;;;;;;;;;2.00;2.00;;;;;19.30;100.00;100515.81;5056296;28;45322;-76
2021/07/05 05:49:00;;;;;;;;;2.50;1.25;;;;;19.43;100.00;100520.34;5045483;28;45302;-76
2021/07/05 05:51:31;;;;;;;;;1.00;1.00;;;;;19.47;100.00;100526.34;5050908;28;45410;-75
2021/07/05 05:53:58;;;;;;;;;1.00;1.00;;;;;19.50;100.00;100518.25;5048161;28;46371;-75
2021/07/05 05:56:24;;;;;;;;;0.00;0.00;;;;;19.62;100.00;100538.78;5050965;28;45397;-76
2021/07/05 05:58:49;;;;;;;;;1.00;1.00;;;;;19.62;100.00;100532.63;5045713;28;45451;-76
2021/07/05 06:01:15;;;;;;;;;0.50;0.50;;;;;19.66;100.00;100534.16;5049388;28;45472;-77
2021/07/05 06:03:40;;;;;;;;;3.00;1.00;;;;;19.59;100.00;100520.41;5049796;28;46463;-77
2021/07/05 06:06:05;;;;;;;;;0.75;0.75;;;;;19.74;100.00;100538.09;5049751;28;46271;-77
2021/07/05 06:08:31;;;;;;;;;1.25;1.00;;;;;19.77;100.00;100526.50;5038152;28;45410;-76
2021/07/05 06:10:56;;;;;;;;;1.00;0.25;;;;;19.87;100.00;100532.97;5049662;28;45399;-76
2021/07/05 06:13:22;;;;;;;;;2.00;1.00;;;;;19.87;100.00;100533.81;5055848;28;46289;-76
2021/07/05 06:15:47;;;;;;;;;0.50;0.50;;;;;19.88;100.00;100534.66;5037279;28;45834;-76
2021/07/05 06:18:13;;;;;;;;;2.00;2.00;;;;;19.85;100.00;100521.59;5037713;28;45438;-76
2021/07/05 06:20:38;;;;;;;;;1.75;1.75;;;;;19.83;100.00;100516.38;5043466;28;45769;-77
2021/07/05 06:23:07;;;;;;;;;1.00;1.00;;;;;19.79;100.00;100516.66;5048749;28;46117;-75
2021/07/05 06:25:33;;;;;;;;;1.75;1.00;;;;;19.73;100.00;100520.50;5048840;28;45375;-75
2021/07/05 06:27:58;;;;;;;;;2.00;2.00;;;;;19.67;100.00;100496.97;5049239;28;45538;-75
2021/07/05 06:30:24;;;;;;;;;1.00;1.00;;;;;19.78;100.00;100514.94;5049508;28;45389;-75
2021/07/05 06:32:49;;;;;;;;;2.00;2.00;;;;;19.87;100.00;100511.78;5048979;28;45402;-76
2021/07/05 06:35:16;;;;;;;;;3.00;2.25;;;;;19.82;100.00;100501.44;5048140;28;45345;-75
2021/07/05 06:37:42;;;;;;;;;3.00;2.50;;;;;19.88;100.00;100511.69;5047838;28;45417;-76
2021/07/05 06:40:08;;;;;;;;;3.00;3.00;;;;;19.89;100.00;100508.09;5044447;28;45436;-76
2021/07/05 06:42:34;;;;;;;;;2.00;2.00;;;;;19.96;100.00;100503.31;5055511;28;48283;-76
2021/07/05 06:45:00;;;;;;;;;3.00;3.00;;;;;20.02;100.00;100497.66;5049072;28;45335;-75
2021/07/05 06:47:26;;;;;;;;;2.75;2.75;;;;;20.11;100.00;100507.72;5048179;28;45362;-75
2021/07/05 06:49:51;;;;;;;;;3.00;2.00;;;;;20.13;100.00;100521.72;5055868;28;45436;-76
2021/07/05 06:52:17;;;;;;;;;2.00;2.00;;;;;20.16;100.00;100520.72;5044823;28;46139;-76
2021/07/05 06:54:42;;;;;;;;;3.25;2.00;;;;;20.15;100.00;100511.94;5051877;28;45365;-76
2021/07/05 06:57:28;;;;;;;;;3.50;2.75;;;;;20.25;100.00;100516.69;5055575;28;45484;-76
2021/07/05 06:59:53;;;;;;;;;2.50;1.50;;;;;20.34;100.00;100519.66;5054758;28;45411;-75
2021/07/05 07:02:18;;;;;;;;;2.25;2.00;;;;;20.41;100.00;100526.34;5055733;28;46436;-75
2021/07/05 07:04:44;;;;;;;;;2.50;2.00;;;;;20.43;100.00;100527.13;5041527;28;45426;-76
2021/07/05 07:07:09;;;;;;;;;2.00;2.00;;;;;20.40;100.00;100519.34;5055472;28;45461;-76
2021/07/05 07:09:34;;;;;;;;;2.00;2.00;;;;;20.44;100.00;100533.28;5049492;28;45401;-76
2021/07/05 07:12:00;;;;;;;;;2.00;1.00;;;;;20.41;100.00;100521.03;5055374;28;46069;-75
2021/07/05 07:14:25;;;;;;;;;1.75;1.75;;;;;20.41;100.00;100520.19;5055514;28;45316;-75
2021/07/05 07:16:52;;;;;;;;;1.50;1.50;;;;;20.58;100.00;100537.75;5052521;28;45405;-76
2021/07/05 07:19:17;;;;;;;;;1.50;1.25;;;;;20.63;100.00;100527.75;5035781;28;45354;-76
2021/07/05 07:21:48;;;;;;;;;2.75;2.00;;;;;20.74;100.00;100528.78;5047959;28;45595;-75
2021/07/05 07:24:14;;;;;;;;;2.00;2.00;;;;;20.78;100.00;100534.78;5045135;28;46025;-76
2021/07/05 07:26:40;;;;;;;;;3.75;3.25;;;;;20.79;100.00;100547.94;5043553;28;45456;-76
2021/07/05 07:29:06;;;;;;;;;4.00;3.75;;;;;20.75;100.00;100529.66;5049437;28;45500;-76
2021/07/05 07:31:31;;;;;;;;;4.00;3.00;;;;;20.88;100.00;100535.09;5020031;28;48497;-77
2021/07/05 07:33:57;;;;;;;;;2.75;2.75;;;;;20.92;100.00;100533.94;5054958;28;45370;-76
2021/07/05 07:36:23;;;;;;;;;3.00;3.00;;;;;20.91;100.00;100533.09;5045467;28;45339;-75
2021/07/05 07:38:53;;;;;;;;;6.25;5.00;;;;;20.97;100.00;100539.81;5041552;28;45368;-75
2021/07/05 07:41:22;;;;;;;;;3.00;3.00;;;;;21.07;100.00;100536.53;5049085;28;46737;-76
2021/07/05 07:43:48;;;;;;;;;4.25;3.50;;;;;21.18;100.00;100529.69;5017069;28;45519;-75
2021/07/05 07:46:14;;;;;;;;;3.25;2.50;;;;;21.37;100.00;100538.28;5052691;28;45514;-75
2021/07/05 07:48:39;;;;;;;;;3.50;3.00;;;;;21.39;100.00;100523.94;5059153;28;45425;-76
2021/07/05 07:51:05;;;;;;;;;3.00;3.00;;;;;21.56;100.00;100532.66;5026354;28;46041;-76
2021/07/05 07:53:30;;;;;;;;;5.25;4.25;;;;;21.70;100.00;100530.81;5040691;28;45401;-75
2021/07/05 07:55:56;;;;;;;;;3.00;3.00;;;;;21.90;100.00;100521.56;5057868;28;45745;-75
2021/07/05 07:58:21;;;;;;;;;2.50;2.00;;;;;22.11;100.00;100524.66;5039716;28;45280;-76
2021/07/05 08:00:47;;;;;;;;;1.25;1.25;;;;;22.16;100.00;100503.94;5048711;28;46383;-76
2021/07/05 08:03:12;;;;;;;;;5.00;3.50;;;;;22.21;100.00;100501.84;5058174;28;45223;-76
2021/07/05 08:05:39;;;;;;;;;5.25;3.50;;;;;22.37;100.00;100516.75;5058549;28;45357;-76
2021/07/05 08:08:04;;;;;;;;;4.00;4.00;;;;;22.47;100.00;100516.06;5039513;28;45404;-75
2021/07/05 08:10:31;;;;;;;;;5.00;5.00;;;;;22.66;100.00;100506.84;5051521;28;45475;-75
2021/07/05 08:12:57;;;;;;;;;5.00;4.75;;;;;22.83;100.00;100504.72;5050663;28;45429;-75
2021/07/05 08:15:23;;;;;;;;;5.25;4.25;;;;;22.96;100.00;100503.91;5058241;28;45406;-75
2021/07/05 08:17:48;;;;;;;;;4.25;4.25;;;;;23.11;100.00;100524.16;5058240;28;45467;-75
2021/07/05 08:20:20;;;;;;;;;6.50;5.00;;;;;23.14;100.00;100529.25;5055171;28;45404;-75
2021/07/05 08:22:46;;;;;;;;;6.25;5.75;;;;;23.28;100.00;100533.59;5047723;28;45424;-76
2021/07/05 08:25:12;;;;;;;;;6.25;5.00;;;;;23.37;100.00;100528.50;5057793;28;45388;-76
2021/07/05 08:27:37;;;;;;;;;5.00;5.00;;;;;23.39;100.00;100526.56;5052472;28;45496;-76
2021/07/05 08:30:05;;;;;;;;;6.00;6.00;;;;;23.35;100.00;100540.22;5039384;28;47528;-75
2021/07/05 08:32:30;;;;;;;;;6.25;6.25;;;;;23.27;100.00;100550.53;5045895;28;45462;-75
2021/07/05 08:34:56;;;;;;;;;7.00;6.00;;;;;23.26;100.00;100546.16;5057468;28;45775;-75
2021/07/05 08:37:21;;;;;;;;;6.00;4.75;;;;;23.34;100.00;100538.50;5048299;28;45401;-75
2021/07/05 08:39:46;;;;;;;;;5.00;5.00;;;;;23.37;100.00;100525.81;5056844;28;46320;-75
2021/07/05 08:42:15;;;;;;;;;6.25;4.75;;;;;23.42;100.00;100531.66;5045822;28;45527;-76
2021/07/05 08:44:41;;;;;;;;;5.75;5.25;;;;;23.35;100.00;100538.41;5037462;28;45398;-76
2021/07/05 08:47:09;;;;;;;;;6.50;6.00;;;;;23.35;100.00;100529.56;5048102;28;45314;-76
2021/07/05 08:49:35;;;;;;;;;6.50;5.00;;;;;23.29;100.00;100520.16;5042506;28;45351;-75
2021/07/05 08:52:00;;;;;;;;;8.00;6.50;;;;;23.37;100.00;100515.16;5057647;28;45345;-75
2021/07/05 08:54:28;;;;;;;;;5.75;5.75;;;;;23.58;100.00;100517.28;5043368;28;45334;-77
2021/07/05 08:56:53;;;;;;;;;5.00;4.00;;;;;23.90;100.00;100526.47;5057016;28;45464;-76
2021/07/05 08:59:21;;;;;;;;;4.50;4.50;;;;;24.14;100.00;100521.97;5057250;28;46246;-76
2021/07/05 09:01:46;;;;;;;;;5.50;5.00;;;;;24.31;100.00;100525.25;5038550;28;45671;-74
2021/07/05 09:04:15;;;;;;;;;6.00;5.50;;;;;24.28;100.00;100523.66;5057015;28;45486;-76
2021/07/05 09:07:05;;;;;;;;;5.75;5.00;;;;;24.16;100.00;100527.19;5054125;28;45437;-75
2021/07/05 09:09:31;;;;;;;;;3.25;3.25;;;;;23.94;100.00;100522.59;5036980;28;45691;-75
2021/07/05 09:12:06;;;;;;;;;4.00;3.00;;;;;23.76;100.00;100523.94;5055461;28;45378;-76
2021/07/05 09:14:32;;;;;;;;;2.00;2.00;;;;;23.66;100.00;100525.56;5046976;28;45390;-76
2021/07/05 09:16:58;;;;;;;;;2.75;2.75;;;;;23.59;100.00;100533.16;5040580;28;45425;-76
2021/07/05 09:19:29;;;;;;;;;4.25;3.50;;;;;23.61;100.00;100535.72;5049729;28;47369;-77
2021/07/05 09:21:59;;;;;;;;;3.00;2.50;;;;;23.78;100.00;100543.38;5043180;28;45417;-76
2021/07/05 09:24:35;;;;;;;;;3.50;2.75;;;;;23.98;100.00;100542.75;5046936;28;45408;-76
2021/07/05 09:27:33;;;;;;;;;3.25;3.00;;;;;24.06;100.00;100550.19;5054405;28;45461;-76
2021/07/05 09:30:07;;;;;;;;;3.25;2.00;;;;;24.02;100.00;100546.91;5041930;28;46868;-76
2021/07/05 09:32:33;;;;;;;;;1.00;1.00;;;;;23.85;100.00;100523.28;5028233;28;45437;-77
2021/07/05 09:35:01;;;;;;;;;1.75;1.50;;;;;23.95;100.00;100545.63;5038733;28;45844;-76
2021/07/05 09:37:30;;;;;;;;;2.00;1.00;;;;;24.02;100.00;100536.25;5045575;28;45386;-77
2021/07/05 09:40:05;;;;;;;;;2.00;2.00;;;;;24.24;100.00;100540.84;5045828;28;46493;-77
2021/07/05 09:42:37;;;;;;;;;1.00;1.00;;;;;24.24;100.00;100540.00;5056691;28;45528;-78
2021/07/05 09:45:12;;;;;;;;;1.00;1.00;;;;;24.23;100.00;100520.47;5054496;28;45432;-76
2021/07/05 09:47:37;;;;;;;;;1.00;1.00;;;;;24.48;100.00;100535.50;5056317;28;45529;-77
2021/07/05 09:50:12;;;;;;;;;1.00;1.00;;;;;24.55;100.00;100527.88;5055466;28;45660;-77
2021/07/05 09:52:38;;;;;;;;;1.00;1.00;;;;;24.67;100.00;100541.16;5038479;28;45667;-78
2021/07/05 09:55:08;;;;;;;;;1.00;1.00;;;;;24.63;100.00;100553.03;5054076;28;45364;-77
2021/07/05 09:57:43;;;;;;;;;1.75;1.75;;;;;24.52;100.00;100547.66;5057375;28;45354;-78
2021/07/05 10:00:09;;;;;;;;;1.00;1.00;;;;;24.43;100.00;100546.50;5053121;28;46100;-77
2021/07/05 10:02:36;;;;;;;;;1.25;1.00;;;;;24.27;100.00;100537.09;5049627;28;45321;-77
2021/07/05 10:05:16;;;;;;;;;1.00;1.00;;;;;24.16;100.00;100550.34;5050663;28;45505;-78
2021/07/05 10:07:42;;;;;;;;;1.00;1.00;;;;;24.09;100.00;100553.47;5024787;28;45303;-77
2021/07/05 10:10:16;;;;;;;;;1.00;1.00;;;;;24.24;100.00;100556.00;5031827;28;47291;-76
2021/07/05 10:13:09;;;;;;;;;1.00;1.00;;;;;24.32;100.00;100543.81;5055736;28;45369;-77
2021/07/05 10:15:35;;;;;;;;;1.25;1.25;;;;;24.44;100.00;100550.03;5042988;28;45365;-77
2021/07/05 10:18:02;;;;;;;;;1.00;1.00;;;;;24.51;100.00;100545.97;5051294;28;45286;-78
2021/07/05 10:20:30;;;;;;;;;0.00;0.00;;;;;24.65;100.00;100556.41;5055929;28;47158;-81
2021/07/05 10:22:59;;;;;;;;;1.00;1.00;;;;;24.86;100.00;100553.94;5050454;28;45554;-77
2021/07/05 10:25:27;;;;;;;;;1.00;1.00;;;;;24.88;100.00;100549.31;5052688;28;45808;-77
2021/07/05 10:27:53;;;;;;;;;1.25;1.00;;;;;25.01;100.00;100550.13;5049784;28;45243;-78
2021/07/05 10:30:20;;;;;;;;;1.00;1.00;;;;;25.01;100.00;100541.25;5048740;28;46219;-78
2021/07/05 10:32:47;;;;;;;;;1.00;1.00;;;;;24.93;100.00;100551.66;5052620;28;45563;-77
2021/07/05 10:35:15;;;;;;;;;1.00;1.00;;;;;24.83;100.00;100559.50;5050263;28;45825;-75
2021/07/05 10:37:56;;;;;;;;;0.00;0.00;;;;;24.98;100.00;100557.50;5048302;28;45477;-77
2021/07/05 10:40:34;;;;;;;;;1.00;1.00;;;;;25.33;100.00;100562.78;5046414;28;45445;-77
2021/07/05 10:43:00;;;;;;;;;0.00;0.00;;;;;25.61;100.00;100564.13;5041485;28;45423;-77
2021/07/05 10:45:39;;;;;;;;;1.00;1.00;;;;;26.03;100.00;100564.34;5038027;28;45266;-76
2021/07/05 10:48:06;;;;;;;;;1.00;1.00;;;;;26.51;100.00;100571.03;5052543;28;45516;-75
2021/07/05 10:50:48;;;;;;;;;1.00;1.00;;;;;27.44;100.00;100580.97;5055222;28;45744;-77
2021/07/05 10:53:43;;;;;;;;;0.00;0.00;;;;;27.91;100.00;100582.16;5041381;28;45444;-77
2021/07/05 10:56:37;;;;;;;;;0.25;0.25;;;;;28.46;100.00;100566.44;5037174;28;45562;-76
2021/07/05 10:59:11;;;;;;;;;0.75;0.75;;;;;28.77;100.00;100566.28;5045743;28;45172;-77
2021/07/05 11:01:37;;;;;;;;;2.00;1.00;;;;;28.38;100.00;100563.63;5051095;28;45450;-76
2021/07/05 11:04:30;;;;;;;;;0.00;0.00;;;;;27.96;100.00;100566.50;5042777;28;45398;-76
2021/07/05 11:07:05;;;;;;;;;1.00;1.00;;;;;27.63;100.00;100566.84;5049672;28;45532;-76
2021/07/05 11:09:30;;;;;;;;;1.75;1.00;;;;;27.31;100.00;100567.78;5049951;28;45338;-75
2021/07/05 11:11:58;;;;;;;;;0.75;0.75;;;;;27.10;100.00;100588.41;5020397;28;46103;-76
2021/07/05 11:14:31;;;;;;;;;13.50;13.00;;;;;26.87;100.00;100579.59;5038649;28;45580;-77
2021/07/05 11:17:08;;;;;;;;;1.25;1.25;;;;;26.74;100.00;100585.19;5056876;28;45489;-76